Time;durP1;ratioP1;P1;durP2;ratioP2;P2;SDS_P1;SDS_P2;PMS_P1;PMS_P2;Temp;Humidity;BMP_temperature;BMP_pressure;BME280_temperature;BME280_humidity;BME280_pressure;Samples;Min_cycle;Max_cycle;Signal;HPM_P1;HPM_P2
2023/08/01 00:00:37;;;;;;;4.85;2.80;;;;;;;18.80;70.72;95796.38;4918147;29;20132;-81
2023/08/01 00:03:11;;;;;;;5.15;2.58;;;;;;;18.83;71.59;95800.38;4901041;29;20124;-80
2023/08/01 00:05:45;;;;;;;3.05;2.55;;;;;;;18.83;70.47;95795.09;4918668;29;20052;-80
2023/08/01 00:08:18;;;;;;;3.65;2.60;;;;;;;18.82;71.13;95801.41;4916062;29;20072;-81
2023/08/01 00:10:48;;;;;;;7.07;2.93;;;;;;;18.81;71.12;95803.28;4916601;29;20049;-81
2023/08/01 00:16:09;;;;;;;4.43;2.45;;;;;;;18.83;71.28;95782.69;4919234;29;20056;-80
2023/08/01 00:18:45;;;;;;;5.20;3.13;;;;;;;18.83;70.63;95785.31;4917674;29;20055;-81
2023/08/01 00:21:16;;;;;;;5.40;2.95;;;;;;;18.81;70.72;95773.41;4917080;29;20072;-81
2023/08/01 00:23:51;;;;;;;6.20;2.88;;;;;;;18.79;70.40;95773.66;4916400;29;20104;-81
2023/08/01 00:26:26;;;;;;;4.55;2.67;;;;;;;18.80;70.74;95775.25;4896948;29;20064;-80
2023/08/01 00:28:59;;;;;;;4.18;2.50;;;;;;;18.82;70.87;95767.06;4914790;29;20108;-80
2023/08/01 00:31:50;;;;;;;3.40;2.60;;;;;;;18.81;70.63;95768.91;4898497;29;20052;-80
2023/08/01 00:34:21;;;;;;;5.05;3.35;;;;;;;18.79;71.20;95771.03;4914201;29;20064;-81
2023/08/01 00:36:50;;;;;;;3.70;2.53;;;;;;;18.77;71.19;95762.50;4899570;29;20076;-81
2023/08/01 00:39:32;;;;;;;6.43;2.90;;;;;;;18.77;71.58;95764.38;4915394;29;20067;-81
2023/08/01 00:42:05;;;;;;;4.28;2.90;;;;;;;18.76;71.42;95754.84;4914923;29;20135;-80
2023/08/01 00:44:35;;;;;;;4.97;2.90;;;;;;;18.73;71.14;95751.66;4911986;29;20084;-80
2023/08/01 00:47:10;;;;;;;4.78;2.75;;;;;;;18.71;71.61;95747.69;4912732;29;20071;-80
2023/08/01 00:49:41;;;;;;;4.38;2.65;;;;;;;18.69;71.43;95741.84;4911315;29;20052;-79
2023/08/01 00:52:12;;;;;;;4.07;2.85;;;;;;;18.69;71.48;95741.84;4911082;29;20060;-80
2023/08/01 00:54:44;;;;;;;3.40;2.60;;;;;;;18.70;71.70;95740.81;4912095;29;20052;-80
2023/08/01 00:57:15;;;;;;;4.82;3.20;;;;;;;18.69;71.27;95739.22;4910946;29;20055;-81
2023/08/01 00:59:51;;;;;;;4.10;2.33;;;;;;;18.68;71.48;95732.34;4910427;29;20112;-80
2023/08/01 01:02:28;;;;;;;3.35;2.63;;;;;;;18.68;71.83;95733.13;4893123;29;20053;-80
2023/08/01 01:04:58;;;;;;;4.28;2.80;;;;;;;18.67;71.24;95725.47;4912600;29;20060;-81
2023/08/01 01:07:31;;;;;;;3.08;2.58;;;;;;;18.66;71.21;95724.66;4914002;29;20056;-81
2023/08/01 01:10:08;;;;;;;4.03;3.10;;;;;;;18.65;71.70;95724.91;4913191;29;20124;-80
2023/08/01 01:12:44;;;;;;;3.55;2.78;;;;;;;18.65;72.21;95706.41;4914789;29;20088;-81
2023/08/01 01:15:16;;;;;;;4.03;2.80;;;;;;;18.64;71.77;95699.56;4912275;29;20474;-80
2023/08/01 01:17:49;;;;;;;3.08;2.75;;;;;;;18.63;72.76;95692.66;4913474;29;20063;-80
2023/08/01 01:20:25;;;;;;;3.67;2.70;;;;;;;18.61;72.74;95684.25;4912322;29;20076;-80
2023/08/01 01:22:59;;;;;;;3.83;2.88;;;;;;;18.56;72.00;95682.31;4917929;29;20053;-80
2023/08/01 01:25:33;;;;;;;5.60;2.80;;;;;;;18.51;71.98;95680.47;4918052;29;20071;-81
2023/08/01 01:28:05;;;;;;;3.42;2.95;;;;;;;18.45;72.55;95670.91;4916721;29;20085;-78
2023/08/01 01:30:42;;;;;;;4.10;2.45;;;;;;;18.42;72.79;95654.78;4919067;29;20108;-80
2023/08/01 01:33:17;;;;;;;4.72;2.75;;;;;;;18.36;73.15;95651.31;4936537;29;20112;-80
2023/08/01 01:35:53;;;;;;;4.57;2.70;;;;;;;18.33;73.30;95641.28;4936271;29;20052;-81
2023/08/01 01:38:28;;;;;;;3.90;3.10;;;;;;;18.32;73.48;95645.75;4937590;29;20052;-79
2023/08/01 01:41:02;;;;;;;4.63;2.70;;;;;;;18.31;73.16;95643.38;4936149;29;20052;-81
2023/08/01 01:43:55;;;;;;;5.38;2.97;;;;;;;18.32;73.13;95650.22;4932483;29;20116;-81
2023/08/01 01:46:37;;;;;;;4.15;3.10;;;;;;;18.33;73.23;95649.97;4918324;29;20088;-81
2023/08/01 01:59:55;;;;;;;3.88;3.35;;;;;;;18.28;74.42;95643.88;5110249;27;20459;-81
2023/08/01 02:02:22;;;;;;;4.10;2.92;;;;;;;18.26;75.00;95635.41;5122342;28;20070;-79
2023/08/01 02:04:51;;;;;;;4.90;3.50;;;;;;;18.27;75.20;95647.56;5106939;28;20059;-79
2023/08/01 02:07:18;;;;;;;4.95;3.35;;;;;;;18.28;74.76;95649.16;5089674;28;20489;-79
2023/08/01 02:09:46;;;;;;;5.90;3.38;;;;;;;18.29;74.86;95656.81;5090761;28;20545;-78
2023/08/01 02:12:14;;;;;;;6.10;2.92;;;;;;;18.34;75.88;95650.75;5089986;28;20045;-81
2023/08/01 02:14:42;;;;;;;3.53;2.65;;;;;;;18.34;74.77;95674.53;5089918;28;20052;-81
2023/08/01 02:17:11;;;;;;;4.93;3.15;;;;;;;18.37;75.58;95667.97;5089568;28;20072;-81
2023/08/01 02:19:39;;;;;;;5.72;3.22;;;;;;;18.39;75.91;95644.72;5089896;28;20048;-81
2023/08/01 02:22:07;;;;;;;4.78;3.40;;;;;;;18.38;75.66;95614.88;5089770;28;20413;-80
2023/08/01 02:24:35;;;;;;;3.17;2.88;;;;;;;18.33;76.27;95593.75;5090145;28;20083;-81
2023/08/01 02:27:03;;;;;;;5.00;3.30;;;;;;;18.31;76.94;95606.41;5090016;28;20178;-81
2023/08/01 02:29:31;;;;;;;5.13;3.25;;;;;;;18.30;76.58;95616.19;5089495;28;20089;-81
2023/08/01 02:31:59;;;;;;;4.25;3.38;;;;;;;18.28;76.37;95585.81;5089505;28;20052;-82
2023/08/01 02:34:29;;;;;;;3.65;3.13;;;;;;;18.26;76.98;95587.91;5105177;28;20049;-82
2023/08/01 02:36:57;;;;;;;4.72;3.05;;;;;;;18.24;76.77;95580.22;5149129;28;20051;-82
2023/08/01 02:39:25;;;;;;;5.57;3.28;;;;;;;18.21;76.63;95569.38;5132697;28;20496;-81
2023/08/01 02:41:53;;;;;;;4.15;3.45;;;;;;;18.17;76.94;95570.94;5130959;28;20419;-82
2023/08/01 02:44:20;;;;;;;4.80;3.33;;;;;;;18.13;77.10;95570.66;5112671;28;20105;-81
2023/08/01 02:46:48;;;;;;;4.30;3.38;;;;;;;18.11;77.13;95559.56;5089662;28;20076;-81
2023/08/01 02:49:16;;;;;;;4.15;2.90;;;;;;;18.09;77.77;95551.91;5089180;28;20044;-81
2023/08/01 02:51:45;;;;;;;4.93;3.60;;;;;;;18.08;77.92;95557.41;5089473;28;20055;-81
2023/08/01 02:54:13;;;;;;;4.75;3.50;;;;;;;18.09;77.95;95556.38;5089256;28;20102;-81
2023/08/01 02:56:41;;;;;;;5.47;3.40;;;;;;;18.08;77.77;95555.59;5090383;28;20106;-81
2023/08/01 02:59:10;;;;;;;4.40;2.90;;;;;;;18.05;77.21;95555.31;5088357;28;20049;-81
2023/08/01 03:01:38;;;;;;;6.18;3.75;;;;;;;18.02;77.14;95559.25;5081461;28;20497;-81
2023/08/01 03:04:07;;;;;;;5.60;3.42;;;;;;;18.04;78.27;95580.91;5076288;28;20097;-81
2023/08/01 03:06:36;;;;;;;4.40;2.67;;;;;;;18.04;77.78;95573.00;5076000;28;20129;-81
2023/08/01 03:09:10;;;;;;;3.60;2.90;;;;;;;18.04;77.45;95565.06;5075909;28;20071;-81
2023/08/01 03:16:31;;;;;;;5.40;3.67;;;;;;;17.96;77.86;95557.63;5014817;28;20526;-80
2023/08/01 03:19:13;;;;;;;4.45;3.20;;;;;;;17.94;77.93;95572.13;5044329;23;20513;-81
2023/08/01 03:21:41;;;;;;;3.70;3.08;;;;;;;17.94;78.11;95575.53;5096603;28;20052;-81
2023/08/01 03:24:38;;;;;;;4.70;3.50;;;;;;;17.95;79.08;95571.06;5096354;28;20060;-82
2023/08/01 03:27:54;;;;;;;6.15;2.97;;;;;;;17.94;79.15;95583.47;5096471;28;20551;-81
2023/08/01 03:30:39;;;;;;;9.70;3.42;;;;;;;17.91;79.43;95561.03;5058839;28;20047;-80
2023/08/01 03:33:08;;;;;;;5.30;3.55;;;;;;;17.89;78.86;95559.69;5076875;28;20078;-81
2023/08/01 03:35:49;;;;;;;4.13;3.00;;;;;;;17.87;78.50;95540.69;5073974;28;20135;-80
2023/08/01 03:38:19;;;;;;;5.97;3.42;;;;;;;17.87;78.11;95540.69;5076466;28;20520;-82
2023/08/01 03:44:28;;;;;;;6.47;3.83;;;;;;;17.90;78.66;95537.53;5084371;28;20052;-81
2023/08/01 03:50:39;;;;;;;4.38;3.15;;;;;;;17.90;77.82;95525.13;6139141;22;20084;-82
2023/08/01 03:53:07;;;;;;;6.03;3.55;;;;;;;17.90;78.29;95517.19;5016971;28;20053;-79
2023/08/01 03:55:42;;;;;;;5.63;3.65;;;;;;;17.89;78.26;95526.19;5015811;28;20050;-82
2023/08/01 04:02:10;;;;;;;6.57;3.13;;;;;;;17.94;78.98;95517.50;4984685;28;20112;-81
2023/08/01 04:04:37;;;;;;;4.60;3.50;;;;;;;17.97;78.32;95511.69;4996243;28;20050;-81
2023/08/01 04:07:08;;;;;;;5.28;3.13;;;;;;;17.97;77.81;95514.34;4996035;28;20074;-82
2023/08/01 04:16:55;;;;;;;7.80;4.18;;;;;;;18.07;79.06;95519.69;5015909;28;20044;-82
2023/08/01 04:23:00;;;;;;;6.22;3.53;;;;;;;18.16;79.00;95527.13;5015740;28;20041;-81
2023/08/01 04:25:28;;;;;;;5.32;3.67;;;;;;;18.18;78.33;95525.81;5016699;28;20053;-81
2023/08/01 04:27:57;;;;;;;4.47;3.40;;;;;;;18.19;77.88;95529.25;5016100;28;20583;-82
2023/08/01 04:30:25;;;;;;;5.45;3.75;;;;;;;18.20;78.62;95531.63;5015982;28;20045;-82
2023/08/01 04:32:53;;;;;;;8.48;3.97;;;;;;;18.23;78.76;95532.97;5015960;28;20056;-82
2023/08/01 04:35:21;;;;;;;5.57;3.38;;;;;;;18.25;78.14;95528.22;5016335;28;20495;-82
2023/08/01 04:37:49;;;;;;;6.88;2.95;;;;;;;18.25;77.93;95530.88;5017079;28;20060;-82
2023/08/01 04:40:18;;;;;;;5.07;3.10;;;;;;;18.24;78.37;95516.09;5021598;28;20057;-82
2023/08/01 04:42:46;;;;;;;6.53;3.75;;;;;;;18.25;77.72;95505.25;5018165;28;20065;-79
2023/08/01 04:45:15;;;;;;;3.72;3.10;;;;;;;18.24;77.76;95498.41;5017025;28;20046;-79
2023/08/01 04:47:42;;;;;;;5.43;3.65;;;;;;;18.27;78.22;95505.00;5016726;28;20050;-79
2023/08/01 04:54:06;;;;;;;3.47;3.08;;;;;;;18.22;77.47;95476.75;5016879;28;20507;-82
2023/08/01 05:03:06;;;;;;;6.10;3.03;;;;;;;18.23;76.28;95414.19;4938143;29;20062;-81
2023/08/01 05:05:34;;;;;;;4.28;3.03;;;;;;;18.24;76.78;95413.16;4940364;29;20052;-81
2023/08/01 05:08:32;;;;;;;6.45;3.45;;;;;;;18.28;77.36;95424.78;4921033;29;20048;-81
2023/08/01 05:11:00;;;;;;;4.57;2.70;;;;;;;18.31;75.93;95416.34;4936662;29;20491;-81
2023/08/01 05:13:28;;;;;;;5.15;3.33;;;;;;;18.33;77.15;95409.75;4947004;29;20477;-81
2023/08/01 05:15:55;;;;;;;4.10;3.25;;;;;;;18.37;75.76;95398.69;4947422;29;20051;-81
2023/08/01 05:18:24;;;;;;;4.45;2.90;;;;;;;18.36;74.85;95397.88;4947816;29;20093;-79
2023/08/01 05:20:52;;;;;;;5.47;3.33;;;;;;;18.36;74.93;95397.88;4947248;29;20052;-78
2023/08/01 05:23:20;;;;;;;4.68;2.88;;;;;;;18.38;75.06;95394.97;4947367;29;20118;-81
2023/08/01 05:25:47;;;;;;;7.03;3.20;;;;;;;18.41;75.25;95394.44;4958889;29;20036;-78
2023/08/01 05:28:15;;;;;;;6.13;3.30;;;;;;;18.41;75.40;95411.09;4955706;29;20053;-78
2023/08/01 05:30:43;;;;;;;3.67;2.90;;;;;;;18.41;75.63;95421.66;4945380;29;20063;-78
2023/08/01 05:33:11;;;;;;;4.28;2.50;;;;;;;18.42;75.70;95438.28;4947708;29;20055;-79
2023/08/01 05:35:40;;;;;;;4.30;3.25;;;;;;;18.43;76.89;95437.22;4955996;29;20043;-79
2023/08/01 05:38:08;;;;;;;3.30;2.60;;;;;;;18.44;75.60;95446.75;4965747;28;20046;-79
2023/08/01 05:40:35;;;;;;;4.97;2.97;;;;;;;18.42;76.05;95449.63;4962121;28;20075;-78
2023/08/01 05:43:04;;;;;;;8.57;3.28;;;;;;;18.44;76.32;95450.16;4945172;29;20075;-78
2023/08/01 05:45:32;;;;;;;5.35;3.20;;;;;;;18.47;76.11;95447.00;4946202;29;20505;-79
2023/08/01 05:47:59;;;;;;;4.57;3.10;;;;;;;18.49;75.67;95442.25;4947057;29;20533;-78
2023/08/01 05:50:27;;;;;;;7.22;2.83;;;;;;;18.51;75.46;95453.34;4948297;29;20090;-79
2023/08/01 05:52:56;;;;;;;5.20;2.80;;;;;;;18.56;75.03;95464.97;4946831;29;20115;-79
2023/08/01 05:55:24;;;;;;;4.88;2.90;;;;;;;18.58;75.58;95468.16;4947664;29;20047;-79
2023/08/01 05:57:52;;;;;;;4.55;3.17;;;;;;;18.59;74.83;95465.28;4948966;29;20055;-78
2023/08/01 06:00:21;;;;;;;5.30;2.95;;;;;;;18.61;75.44;95476.38;4948104;29;21380;-79
2023/08/01 06:02:49;;;;;;;3.78;3.15;;;;;;;18.63;75.65;95481.38;4946191;29;20054;-78
2023/08/01 06:05:17;;;;;;;6.80;3.10;;;;;;;18.66;75.61;95483.50;4946101;29;20082;-78
2023/08/01 06:07:45;;;;;;;5.30;3.38;;;;;;;18.70;76.23;95476.66;4945869;29;20047;-79
2023/08/01 06:10:14;;;;;;;5.18;3.22;;;;;;;18.73;76.25;95470.84;4944650;29;20063;-79
2023/08/01 06:12:42;;;;;;;4.25;3.17;;;;;;;18.73;76.28;95466.34;4944400;29;20082;-79
2023/08/01 06:15:11;;;;;;;4.47;3.20;;;;;;;18.73;76.44;95455.00;4943599;29;20048;-79
2023/08/01 06:17:38;;;;;;;4.43;3.15;;;;;;;18.70;77.08;95453.66;4944636;29;20055;-78
2023/08/01 06:20:07;;;;;;;5.28;3.03;;;;;;;18.69;77.43;95461.84;4945471;29;20153;-79
2023/08/01 06:22:35;;;;;;;4.20;3.20;;;;;;;18.65;77.21;95452.84;4945361;29;20044;-78
2023/08/01 06:25:03;;;;;;;5.90;3.15;;;;;;;18.61;76.89;95449.16;4946119;29;20047;-79
2023/08/01 06:27:32;;;;;;;5.72;4.20;;;;;;;18.56;77.55;95455.22;4946078;29;20068;-79
2023/08/01 06:29:59;;;;;;;7.30;4.13;;;;;;;18.54;77.00;95452.03;4945992;29;20044;-79
2023/08/01 06:32:27;;;;;;;9.70;4.05;;;;;;;18.50;77.45;95451.00;4944711;29;20060;-79
2023/08/01 06:34:55;;;;;;;5.80;3.00;;;;;;;18.50;77.58;95440.44;4948980;29;20138;-79
2023/08/01 06:37:23;;;;;;;6.82;3.63;;;;;;;18.48;77.38;95443.31;4963446;28;20055;-78
2023/08/01 06:39:50;;;;;;;7.20;3.92;;;;;;;18.44;77.85;95449.38;4949556;29;20066;-78
2023/08/01 06:42:18;;;;;;;5.25;3.40;;;;;;;18.43;78.02;95438.03;4948174;29;20142;-78
2023/08/01 06:44:47;;;;;;;4.30;3.10;;;;;;;18.45;77.81;95440.38;4948001;29;20565;-78
2023/08/01 06:47:15;;;;;;;4.82;3.42;;;;;;;18.47;78.30;95440.94;4933652;29;20055;-78
2023/08/01 06:49:43;;;;;;;4.63;3.63;;;;;;;18.46;78.27;95432.22;4949406;29;20054;-79
2023/08/01 06:52:11;;;;;;;6.57;4.30;;;;;;;18.46;78.03;95432.22;4948321;29;20059;-78
2023/08/01 06:54:39;;;;;;;6.57;4.65;;;;;;;18.41;77.88;95426.94;4947659;29;20056;-78
2023/08/01 06:57:07;;;;;;;5.25;4.07;;;;;;;18.35;78.30;95438.53;4947986;29;20417;-79
2023/08/01 06:59:35;;;;;;;5.70;4.05;;;;;;;18.31;79.29;95455.94;4948084;29;20051;-78
2023/08/01 07:02:05;;;;;;;4.03;3.40;;;;;;;18.28;78.90;95475.72;4943150;29;20399;-79
2023/08/01 07:04:34;;;;;;;5.30;3.47;;;;;;;18.29;79.14;95487.06;4948041;29;20071;-79
2023/08/01 07:07:01;;;;;;;7.60;4.05;;;;;;;18.32;79.53;95497.09;4948565;29;20115;-79
2023/08/01 07:09:30;;;;;;;8.13;3.92;;;;;;;18.36;80.07;95523.78;4949051;29;20715;-79
2023/08/01 07:11:58;;;;;;;5.90;4.13;;;;;;;18.40;80.69;95541.50;4952652;29;20592;-78
2023/08/01 07:14:25;;;;;;;5.30;3.03;;;;;;;18.42;79.48;95528.06;4949016;29;20099;-79
2023/08/01 07:16:53;;;;;;;4.55;3.20;;;;;;;18.42;77.56;95522.78;4951911;29;20059;-79
2023/08/01 07:19:22;;;;;;;5.60;2.90;;;;;;;18.37;77.48;95513.00;4951076;29;20055;-78
2023/08/01 07:21:50;;;;;;;6.72;3.40;;;;;;;18.31;76.46;95524.56;4956055;29;20080;-79
2023/08/01 07:24:18;;;;;;;5.13;3.60;;;;;;;18.21;77.64;95549.06;4949850;29;20052;-78
2023/08/01 07:26:46;;;;;;;5.30;3.55;;;;;;;18.14;78.35;95537.16;4947892;29;20505;-78
2023/08/01 07:29:15;;;;;;;4.75;3.42;;;;;;;18.06;78.84;95547.16;4947380;29;20050;-78
2023/08/01 07:31:43;;;;;;;5.13;3.50;;;;;;;18.02;77.98;95555.81;4936406;29;20076;-79
2023/08/01 07:34:13;;;;;;;8.98;3.65;;;;;;;17.99;78.11;95546.53;4944267;29;20044;-78
2023/08/01 07:36:43;;;;;;;5.57;3.80;;;;;;;18.00;78.31;95527.03;4945087;29;20051;-77
2023/08/01 07:39:10;;;;;;;5.63;3.55;;;;;;;17.98;78.47;95508.03;4938645;29;20090;-79
2023/08/01 07:41:38;;;;;;;4.97;3.92;;;;;;;17.98;78.49;95496.69;4936830;29;20047;-76
2023/08/01 07:44:06;;;;;;;5.78;3.50;;;;;;;17.94;78.17;95501.66;4940201;29;20047;-78
2023/08/01 07:46:33;;;;;;;5.07;3.67;;;;;;;17.94;79.24;95504.31;4947274;29;20052;-79
2023/08/01 07:49:01;;;;;;;5.43;3.65;;;;;;;17.91;79.10;95502.97;4948064;29;20535;-78
2023/08/01 07:51:29;;;;;;;5.45;3.45;;;;;;;17.90;78.50;95511.94;4937302;29;20091;-78
2023/08/01 07:53:58;;;;;;;5.22;3.25;;;;;;;17.90;78.58;95511.94;4938070;29;20059;-77
2023/08/01 07:56:26;;;;;;;6.32;4.00;;;;;;;17.90;79.79;95490.81;4918925;29;20048;-78
2023/08/01 07:58:53;;;;;;;7.20;4.10;;;;;;;17.93;80.26;95500.09;4934494;29;20135;-78
2023/08/01 08:01:22;;;;;;;6.68;4.20;;;;;;;17.90;79.98;95497.94;4942340;29;20072;-79
2023/08/01 08:03:50;;;;;;;6.70;3.70;;;;;;;17.89;80.07;95504.28;4945490;29;20059;-78
2023/08/01 08:06:17;;;;;;;5.22;3.55;;;;;;;17.87;79.62;95523.00;4937672;29;20058;-76
2023/08/01 08:08:45;;;;;;;4.93;3.25;;;;;;;17.87;80.09;95569.69;4937512;29;20090;-77
2023/08/01 08:11:14;;;;;;;4.55;3.25;;;;;;;17.88;80.31;95589.75;4938520;29;20079;-78
2023/08/01 08:13:41;;;;;;;7.57;4.07;;;;;;;17.85;80.56;95555.97;4938576;29;20067;-77
2023/08/01 08:16:09;;;;;;;4.93;3.67;;;;;;;17.81;81.07;95549.56;4936285;29;20540;-75
2023/08/01 08:18:37;;;;;;;8.98;3.70;;;;;;;17.77;80.40;95532.66;4936864;29;20059;-78
2023/08/01 08:21:04;;;;;;;5.82;3.65;;;;;;;17.74;80.31;95522.63;4937873;29;20043;-78
2023/08/01 08:23:32;;;;;;;6.82;3.80;;;;;;;17.67;79.89;95522.84;4937773;29;20047;-77
2023/08/01 08:26:00;;;;;;;6.75;4.32;;;;;;;17.61;80.26;95514.09;4935862;29;20047;-77
2023/08/01 08:28:33;;;;;;;5.88;4.07;;;;;;;17.57;81.31;95506.94;4936048;29;20111;-77
2023/08/01 08:31:01;;;;;;;5.80;4.32;;;;;;;17.56;80.88;95505.34;4934609;29;20051;-77
2023/08/01 08:33:30;;;;;;;6.00;3.80;;;;;;;17.54;81.14;95508.25;4936770;29;20190;-77
2023/08/01 08:35:57;;;;;;;7.20;4.50;;;;;;;17.57;81.11;95513.00;4946707;28;20079;-77
2023/08/01 08:38:25;;;;;;;7.95;4.03;;;;;;;17.54;80.73;95500.34;4932854;29;20095;-77
2023/08/01 08:41:06;;;;;;;6.38;4.40;;;;;;;17.51;81.39;95511.38;4916998;29;20044;-77
2023/08/01 08:43:35;;;;;;;8.20;4.40;;;;;;;17.50;80.94;95515.84;4928278;29;20106;-77
2023/08/01 08:46:04;;;;;;;8.55;4.53;;;;;;;17.50;81.10;95512.41;4936035;29;20047;-78
2023/08/01 08:48:33;;;;;;;6.32;4.25;;;;;;;17.51;81.22;95514.00;4935813;29;20054;-77
2023/08/01 08:51:03;;;;;;;9.80;4.40;;;;;;;17.53;80.93;95508.47;4935468;29;20048;-77
2023/08/01 08:53:32;;;;;;;5.28;3.95;;;;;;;17.54;80.99;95508.25;4935539;29;20465;-77
2023/08/01 08:56:01;;;;;;;5.60;4.47;;;;;;;17.57;80.86;95505.09;4935678;29;20059;-77
2023/08/01 08:58:30;;;;;;;7.03;4.30;;;;;;;17.59;80.83;95513.53;4935133;29;20051;-77
2023/08/01 09:01:01;;;;;;;6.80;4.15;;;;;;;17.61;80.82;95514.09;4935177;29;20054;-77
2023/08/01 09:03:29;;;;;;;4.97;3.42;;;;;;;17.62;80.55;95499.88;4935519;29;20059;-77
2023/08/01 09:06:03;;;;;;;8.75;4.47;;;;;;;17.62;81.03;95515.69;4935421;29;20055;-77
2023/08/01 09:08:35;;;;;;;5.20;4.03;;;;;;;17.61;81.13;95515.94;4939237;29;20052;-77
2023/08/01 09:11:04;;;;;;;6.32;4.30;;;;;;;17.63;81.10;95512.00;4934512;29;20086;-77
2023/08/01 09:13:32;;;;;;;6.70;4.05;;;;;;;17.65;81.22;95522.28;4932410;29;20047;-77
2023/08/01 09:16:02;;;;;;;6.13;4.57;;;;;;;17.66;81.64;95516.75;4935581;29;20074;-78
2023/08/01 09:18:30;;;;;;;5.10;4.00;;;;;;;17.71;81.95;95524.72;4936869;29;20110;-77
2023/08/01 09:21:02;;;;;;;5.40;4.10;;;;;;;17.74;82.19;95535.81;4933910;29;20051;-77
2023/08/01 09:23:30;;;;;;;7.07;4.55;;;;;;;17.71;81.65;95508.91;4935209;29;20061;-78
2023/08/01 09:25:58;;;;;;;4.88;3.50;;;;;;;17.70;82.01;95501.22;4935020;29;20664;-78
2023/08/01 09:28:27;;;;;;;4.68;3.72;;;;;;;17.71;81.48;95502.84;4935234;29;20469;-78
2023/08/01 09:30:57;;;;;;;5.40;3.60;;;;;;;17.71;82.03;95494.91;4933809;29;20107;-76
2023/08/01 09:33:26;;;;;;;5.00;3.88;;;;;;;17.72;82.63;95499.13;4942333;29;20058;-76
2023/08/01 09:35:54;;;;;;;6.78;4.35;;;;;;;17.75;82.43;95487.28;4940938;29;20107;-76
2023/08/01 09:38:21;;;;;;;6.15;4.13;;;;;;;17.76;82.42;95502.06;4933962;29;20458;-76
2023/08/01 09:40:50;;;;;;;5.95;3.75;;;;;;;17.80;82.36;95500.47;4934290;29;20107;-76
2023/08/01 09:43:17;;;;;;;6.55;4.10;;;;;;;17.82;82.97;95495.78;4920136;29;20083;-76
2023/08/01 09:45:52;;;;;;;4.28;3.05;;;;;;;17.86;83.51;95492.41;4917613;29;20052;-76
2023/08/01 09:48:25;;;;;;;5.93;4.00;;;;;;;17.88;83.20;95490.28;4934407;29;20825;-77
2023/08/01 09:51:07;;;;;;;6.72;3.17;;;;;;;17.88;81.29;95494.78;4934058;29;20107;-76
2023/08/01 09:53:36;;;;;;;3.17;2.53;;;;;;;17.83;81.05;95490.25;4934339;29;20052;-76
2023/08/01 09:56:04;;;;;;;4.00;3.33;;;;;;;17.83;81.77;95489.47;4934389;29;20044;-76
2023/08/01 09:58:34;;;;;;;3.88;2.70;;;;;;;17.83;81.72;95485.00;4933758;29;20091;-76
2023/08/01 10:01:02;;;;;;;3.70;2.63;;;;;;;17.90;82.73;95493.47;4934361;29;20056;-76
2023/08/01 10:03:30;;;;;;;3.92;2.67;;;;;;;17.93;81.94;95494.81;4934440;29;20039;-76
2023/08/01 10:06:00;;;;;;;3.75;2.28;;;;;;;17.96;81.43;95499.56;4934575;29;20048;-76
2023/08/01 10:08:32;;;;;;;3.88;2.65;;;;;;;17.98;81.81;95513.31;4934281;29;20094;-77
2023/08/01 10:10:59;;;;;;;3.30;1.77;;;;;;;18.02;81.79;95513.59;4937163;29;20055;-76
2023/08/01 10:13:28;;;;;;;2.13;1.60;;;;;;;18.03;81.31;95515.97;4937791;29;20106;-76
2023/08/01 10:15:56;;;;;;;2.42;1.75;;;;;;;18.06;81.72;95528.66;4938117;29;20055;-76
2023/08/01 10:18:24;;;;;;;4.57;2.28;;;;;;;18.09;82.27;95519.44;4926514;29;20581;-76
2023/08/01 10:20:52;;;;;;;5.60;2.10;;;;;;;18.10;82.59;95511.28;4937369;29;20052;-76
2023/08/01 10:23:22;;;;;;;2.97;2.10;;;;;;;18.11;81.64;95517.34;4938191;29;20168;-76
2023/08/01 10:25:50;;;;;;;3.08;1.65;;;;;;;18.14;81.51;95521.31;4938626;29;20052;-76
2023/08/01 10:28:17;;;;;;;3.28;2.17;;;;;;;18.12;80.88;95518.91;4937879;29;20055;-76
2023/08/01 10:30:45;;;;;;;3.13;2.13;;;;;;;18.13;82.11;95528.44;4937371;29;20055;-75
2023/08/01 10:33:13;;;;;;;1.70;1.48;;;;;;;18.16;82.71;95521.84;4942779;29;20480;-76
2023/08/01 10:35:41;;;;;;;2.30;1.95;;;;;;;18.19;82.44;95518.69;4940305;29;20111;-75
2023/08/01 10:38:10;;;;;;;2.63;1.98;;;;;;;18.22;81.72;95528.75;4936490;29;20051;-75
2023/08/01 10:40:41;;;;;;;2.45;1.80;;;;;;;18.22;82.33;95520.84;4937988;29;20066;-75
2023/08/01 10:43:20;;;;;;;2.97;1.45;;;;;;;18.21;83.27;95525.28;4938837;29;20051;-76
2023/08/01 10:45:48;;;;;;;2.10;1.88;;;;;;;18.21;83.22;95527.94;4937924;29;20180;-75
2023/08/01 10:48:16;;;;;;;2.80;1.52;;;;;;;18.23;82.70;95520.56;4937822;29;20051;-76
2023/08/01 10:50:43;;;;;;;2.30;1.48;;;;;;;18.25;82.64;95525.59;4938051;29;20138;-76
2023/08/01 10:53:11;;;;;;;1.85;1.35;;;;;;;18.26;81.93;95516.63;4937275;29;20095;-75
2023/08/01 10:55:42;;;;;;;2.30;1.60;;;;;;;18.28;82.98;95522.47;4937770;29;20055;-76
2023/08/01 10:58:09;;;;;;;2.08;1.58;;;;;;;18.29;82.82;95513.47;4937435;29;20090;-76
2023/08/01 11:00:37;;;;;;;2.25;1.52;;;;;;;18.31;83.32;95511.38;4936864;29;20104;-75
2023/08/01 11:03:05;;;;;;;1.40;1.13;;;;;;;18.31;82.41;95524.56;4938471;29;20055;-76
2023/08/01 11:05:33;;;;;;;2.88;1.45;;;;;;;18.32;81.80;95523.50;4937641;29;20211;-77
2023/08/01 11:08:02;;;;;;;1.30;1.20;;;;;;;18.32;81.98;95515.59;4941426;29;20568;-76
2023/08/01 11:10:32;;;;;;;2.33;1.15;;;;;;;18.32;82.29;95505.84;4942261;29;20052;-76
2023/08/01 11:13:01;;;;;;;1.45;1.23;;;;;;;18.35;83.21;95512.44;4937944;29;20044;-76
2023/08/01 11:15:28;;;;;;;1.20;1.10;;;;;;;18.38;82.89;95511.91;4936567;29;20056;-75
2023/08/01 11:17:56;;;;;;;1.65;1.15;;;;;;;18.41;82.67;95507.97;4937117;29;20102;-75
2023/08/01 11:20:26;;;;;;;1.10;1.00;;;;;;;18.45;83.18;95512.47;4935412;29;20056;-76
2023/08/01 11:23:00;;;;;;;1.80;0.93;;;;;;;18.47;82.08;95514.88;4936506;29;20051;-78
2023/08/01 11:25:35;;;;;;;1.45;0.90;;;;;;;18.51;82.09;95519.38;4937089;29;20055;-79
2023/08/01 11:28:07;;;;;;;1.30;0.98;;;;;;;18.56;81.66;95517.81;4937237;29;20058;-78
2023/08/01 11:30:35;;;;;;;1.05;0.70;;;;;;;18.57;81.26;95527.34;4936889;29;20059;-78
2023/08/01 11:33:05;;;;;;;1.55;0.80;;;;;;;18.59;81.44;95533.16;4940610;29;20047;-77
2023/08/01 11:35:32;;;;;;;1.00;0.60;;;;;;;18.61;81.01;95515.19;4951264;28;20079;-78
2023/08/01 11:38:00;;;;;;;0.63;0.63;;;;;;;18.67;81.33;95508.84;4935936;29;20079;-78
2023/08/01 11:40:28;;;;;;;1.05;0.80;;;;;;;18.78;81.55;95512.34;4936418;29;20110;-77
2023/08/01 11:42:58;;;;;;;1.10;1.00;;;;;;;18.82;81.17;95516.84;4936461;29;20529;-78
2023/08/01 11:45:27;;;;;;;1.70;1.30;;;;;;;18.84;81.56;95525.31;4944169;29;20048;-78
2023/08/01 11:47:55;;;;;;;3.90;0.80;;;;;;;18.81;80.98;95523.22;4946289;29;20056;-79
2023/08/01 11:50:24;;;;;;;2.10;1.00;;;;;;;18.71;81.57;95534.50;4957998;29;20052;-81
2023/08/01 11:52:53;;;;;;;1.83;0.90;;;;;;;18.59;81.96;95544.50;4959668;29;20113;-82
2023/08/01 11:55:25;;;;;;;4.07;1.55;;;;;;;18.47;81.65;95525.44;4959994;29;20103;-81
2023/08/01 11:57:53;;;;;;;;;;;;;;;18.37;80.84;95528.81;4954789;29;20039;-77
2023/08/01 12:00:28;;;;;;;1.30;0.90;;;;;;;18.31;80.11;95537.78;4954475;29;19922;-79
2023/08/01 12:03:05;;;;;;;2.50;1.02;;;;;;;18.30;81.44;95544.09;4941917;29;20056;-77
2023/08/01 12:05:33;;;;;;;1.13;0.65;;;;;;;18.30;80.32;95541.44;4933789;29;20498;-77
2023/08/01 12:08:12;;;;;;;1.33;0.98;;;;;;;18.33;81.57;95541.75;4935949;29;20047;-76
2023/08/01 12:10:42;;;;;;;1.05;0.80;;;;;;;18.45;81.24;95554.72;4917292;29;20503;-77
2023/08/01 12:13:21;;;;;;;0.90;0.65;;;;;;;18.62;80.97;95546.63;4935532;29;20058;-76
2023/08/01 12:15:50;;;;;;;0.50;0.47;;;;;;;18.85;81.49;95555.97;4935973;29;20106;-77
2023/08/01 12:18:22;;;;;;;1.10;0.98;;;;;;;19.01;81.36;95556.03;4936400;29;20063;-77
2023/08/01 12:21:09;;;;;;;0.80;0.52;;;;;;;19.14;79.87;95555.53;4935794;29;20054;-77
2023/08/01 12:23:37;;;;;;;2.75;0.88;;;;;;;19.20;78.78;95554.50;4936030;29;20063;-77
2023/08/01 12:26:05;;;;;;;1.35;0.70;;;;;;;19.28;78.56;95564.53;4936034;29;20505;-77
2023/08/01 12:28:32;;;;;;;1.48;0.85;;;;;;;19.37;78.54;95564.81;4935279;29;20056;-77
2023/08/01 12:31:01;;;;;;;1.58;0.70;;;;;;;19.54;77.68;95564.56;4936028;29;20048;-77
2023/08/01 12:33:29;;;;;;;1.13;1.02;;;;;;;19.67;75.80;95558.75;4942023;29;20047;-78
2023/08/01 12:35:56;;;;;;;0.70;0.55;;;;;;;19.78;73.32;95574.66;4946289;29;20047;-77
2023/08/01 12:38:24;;;;;;;0.73;0.40;;;;;;;19.86;72.81;95568.84;4926760;29;20100;-77